Time;durP1;ratioP1;P1;durP2;ratioP2;P2;SDS_P1;SDS_P2;PMS_P1;PMS_P2;Temp;Humidity;BMP_temperature;BMP_pressure;BME280_temperature;BME280_humidity;BME280_pressure;Samples;Min_cycle;Max_cycle;Signal;HPM_P1;HPM_P2
2023/06/04 00:01:05;;;;;;;32.03;20.77;;;20.40;99.90;;;;;;5054030;28;20044;-75
2023/06/04 00:04:10;;;;;;;32.53;22.15;;;20.30;99.90;;;;;;5053059;28;20056;-76
2023/06/04 00:07:14;;;;;;;32.38;20.08;;;20.20;99.90;;;;;;5071110;28;20087;-76
2023/06/04 00:10:18;;;;;;;27.52;21.38;;;20.30;99.90;;;;;;5093954;28;20047;-76
2023/06/04 00:13:22;;;;;;;33.70;21.33;;;20.30;99.90;;;;;;5093785;28;20043;-76
2023/06/04 00:16:26;;;;;;;31.45;21.25;;;20.20;99.90;;;;;;5093962;28;20043;-76
2023/06/04 00:19:30;;;;;;;27.58;20.25;;;20.30;99.90;;;;;;5081924;28;20046;-77
2023/06/04 00:22:35;;;;;;;26.60;20.00;;;20.30;99.90;;;;;;5093633;28;20058;-76
2023/06/04 00:25:38;;;;;;;32.85;20.67;;;20.00;99.90;;;;;;5081194;28;20035;-77
2023/06/04 00:28:42;;;;;;;26.75;19.75;;;19.80;99.90;;;;;;5094243;28;20031;-76
2023/06/04 00:31:46;;;;;;;29.48;20.23;;;19.60;99.90;;;;;;5093496;28;20511;-77
2023/06/04 00:34:55;;;;;;;24.23;19.05;;;19.70;99.90;;;;;;5093863;28;20040;-76
2023/06/04 00:37:59;;;;;;;23.33;19.17;;;19.70;99.90;;;;;;5093663;28;20050;-76
2023/06/04 00:41:03;;;;;;;27.73;18.17;;;19.70;99.90;;;;;;5093575;28;20039;-76
2023/06/04 00:44:07;;;;;;;23.45;17.50;;;19.80;99.90;;;;;;5093546;28;20051;-76
2023/06/04 00:47:16;;;;;;;23.33;16.50;;;19.70;99.90;;;;;;5092555;28;20039;-76
2023/06/04 00:50:21;;;;;;;22.48;16.88;;;19.80;99.90;;;;;;5093201;28;20063;-77
2023/06/04 00:53:25;;;;;;;26.60;17.02;;;19.90;99.90;;;;;;5093620;28;20499;-76
2023/06/04 00:56:29;;;;;;;22.27;16.58;;;19.90;99.90;;;;;;5093894;28;20062;-75
2023/06/04 00:59:38;;;;;;;27.83;17.08;;;20.00;99.90;;;;;;5093204;28;20392;-75
2023/06/04 01:02:46;;;;;;;23.30;17.10;;;20.00;99.90;;;;;;5092525;28;20502;-76
2023/06/04 01:06:19;;;;;;;21.42;17.27;;;20.00;99.90;;;;;;5092965;28;20507;-75
2023/06/04 01:09:26;;;;;;;27.35;17.85;;;20.00;99.90;;;;;;5068608;28;20055;-75
2023/06/04 01:12:30;;;;;;;26.27;17.25;;;19.90;99.90;;;;;;5080372;28;20035;-76
2023/06/04 01:15:36;;;;;;;22.55;16.90;;;19.80;99.90;;;;;;5080372;28;20399;-75
2023/06/04 01:18:41;;;;;;;23.30;16.58;;;19.80;99.90;;;;;;5092824;28;20071;-75
2023/06/04 01:21:45;;;;;;;23.88;17.95;;;19.70;99.90;;;;;;5080255;28;20039;-75
2023/06/04 01:24:55;;;;;;;20.98;15.32;;;19.70;99.90;;;;;;5092775;28;20047;-75
2023/06/04 01:28:00;;;;;;;18.88;14.75;;;19.80;99.90;;;;;;5092674;28;20055;-75
2023/06/04 01:31:07;;;;;;;26.15;15.77;;;19.80;99.90;;;;;;5092159;28;20050;-75
2023/06/04 01:34:11;;;;;;;23.10;15.73;;;19.80;99.90;;;;;;5079751;28;20043;-76
2023/06/04 01:37:19;;;;;;;29.90;17.02;;;19.80;99.90;;;;;;5079722;28;20387;-75
2023/06/04 01:40:24;;;;;;;24.60;15.57;;;19.80;99.90;;;;;;5092539;28;20047;-76
2023/06/04 01:43:29;;;;;;;29.55;16.23;;;19.80;99.90;;;;;;5092243;28;20047;-76
2023/06/04 01:46:33;;;;;;;20.20;15.60;;;19.90;99.90;;;;;;5079487;28;20051;-76
2023/06/04 01:49:38;;;;;;;19.70;14.80;;;19.90;99.90;;;;;;5092160;28;20063;-76
2023/06/04 01:52:43;;;;;;;25.13;15.35;;;19.90;99.90;;;;;;5092011;28;20046;-76
2023/06/04 01:55:49;;;;;;;28.65;15.55;;;19.90;99.90;;;;;;5068196;28;20039;-76
2023/06/04 01:58:53;;;;;;;26.45;15.38;;;19.90;99.90;;;;;;5079619;28;20039;-76
2023/06/04 02:01:57;;;;;;;20.02;15.10;;;19.90;99.90;;;;;;5079072;28;20395;-75
2023/06/04 02:05:07;;;;;;;26.95;15.65;;;20.00;99.90;;;;;;5079001;28;20048;-76
2023/06/04 02:08:12;;;;;;;21.50;16.05;;;20.00;99.90;;;;;;5053873;28;20052;-75
2023/06/04 02:11:16;;;;;;;21.83;15.73;;;20.10;99.90;;;;;;5051663;28;20068;-75
2023/06/04 02:14:20;;;;;;;20.95;15.15;;;20.10;99.90;;;;;;5050838;28;20044;-75
2023/06/04 02:17:25;;;;;;;28.92;16.48;;;20.00;99.90;;;;;;5051183;28;20056;-75
2023/06/04 02:20:29;;;;;;;28.05;16.65;;;19.90;99.90;;;;;;5050665;28;20112;-75
2023/06/04 02:23:34;;;;;;;19.13;15.23;;;19.90;99.90;;;;;;5050843;28;20040;-75
2023/06/04 02:26:38;;;;;;;22.02;15.18;;;19.90;99.90;;;;;;5050268;28;20040;-75
2023/06/04 02:29:44;;;;;;;20.02;16.35;;;19.80;99.90;;;;;;5051181;28;20055;-75
2023/06/04 02:32:50;;;;;;;19.55;15.45;;;19.70;99.90;;;;;;5051277;28;20044;-75
2023/06/04 02:35:55;;;;;;;25.88;16.63;;;19.60;99.90;;;;;;5050946;28;20207;-75
2023/06/04 02:39:01;;;;;;;23.58;16.67;;;19.60;99.90;;;;;;5050289;28;20040;-75
2023/06/04 02:42:06;;;;;;;23.30;17.85;;;19.60;99.90;;;;;;5038328;28;20064;-75
2023/06/04 02:45:11;;;;;;;23.63;17.75;;;19.70;99.90;;;;;;5051392;28;20059;-75
2023/06/04 02:48:15;;;;;;;23.52;18.92;;;19.60;99.90;;;;;;5051342;28;20064;-76
2023/06/04 02:51:21;;;;;;;25.02;17.60;;;19.50;99.90;;;;;;5038591;28;20528;-75
2023/06/04 02:54:28;;;;;;;20.73;17.02;;;19.50;99.90;;;;;;5051459;28;20040;-76
2023/06/04 02:57:31;;;;;;;22.00;16.95;;;19.60;99.90;;;;;;5049699;28;20040;-76
2023/06/04 03:00:35;;;;;;;22.27;16.60;;;19.60;99.90;;;;;;5051162;28;20488;-76
2023/06/04 03:03:39;;;;;;;20.67;15.88;;;19.50;99.90;;;;;;5050971;28;20040;-76
2023/06/04 03:06:44;;;;;;;22.73;15.75;;;19.50;99.90;;;;;;5058418;28;20059;-76
2023/06/04 03:09:49;;;;;;;21.08;15.60;;;19.50;99.90;;;;;;5080917;28;20047;-76
2023/06/04 03:12:53;;;;;;;24.15;16.23;;;19.30;99.90;;;;;;5082898;28;20051;-75
2023/06/04 03:16:00;;;;;;;28.27;16.15;;;19.30;99.90;;;;;;5082405;28;20043;-76
2023/06/04 03:19:05;;;;;;;20.48;15.88;;;19.30;99.90;;;;;;5082231;28;20047;-76
2023/06/04 03:22:10;;;;;;;21.42;16.13;;;19.30;99.90;;;;;;5070567;28;20051;-76
2023/06/04 03:25:15;;;;;;;22.88;16.85;;;19.20;99.90;;;;;;5082494;28;20395;-76
2023/06/04 03:28:19;;;;;;;18.73;16.08;;;19.20;99.90;;;;;;5095054;28;20047;-76
2023/06/04 03:31:25;;;;;;;22.20;16.40;;;19.30;99.90;;;;;;5094621;28;20051;-75
2023/06/04 03:34:32;;;;;;;21.67;17.08;;;19.20;99.90;;;;;;5082443;28;20399;-76
2023/06/04 03:37:36;;;;;;;20.33;15.65;;;19.10;99.90;;;;;;5082108;28;20408;-76
2023/06/04 03:40:41;;;;;;;19.95;15.98;;;19.10;99.90;;;;;;5070749;28;20558;-75
2023/06/04 03:43:46;;;;;;;23.90;17.15;;;19.10;99.90;;;;;;5082747;28;20039;-75
2023/06/04 03:46:51;;;;;;;21.85;16.40;;;19.10;99.90;;;;;;5082384;28;20039;-77
2023/06/04 03:49:58;;;;;;;23.92;16.98;;;19.10;99.90;;;;;;5070373;28;20054;-75
2023/06/04 03:53:06;;;;;;;25.33;17.05;;;19.10;99.90;;;;;;5070523;28;20490;-75
2023/06/04 03:56:10;;;;;;;26.02;17.70;;;19.10;99.90;;;;;;5059029;28;20043;-75
2023/06/04 03:59:15;;;;;;;23.85;16.92;;;19.00;99.90;;;;;;5081640;28;20039;-76
2023/06/04 04:02:19;;;;;;;22.58;17.35;;;19.00;99.90;;;;;;5081690;28;20051;-77
2023/06/04 04:05:23;;;;;;;26.95;17.17;;;18.90;99.90;;;;;;5081962;28;20046;-77
2023/06/04 04:08:31;;;;;;;21.83;16.98;;;18.80;99.90;;;;;;5070082;28;20063;-76
2023/06/04 04:11:36;;;;;;;31.38;17.70;;;18.90;99.90;;;;;;5070306;28;20062;-76
2023/06/04 04:14:41;;;;;;;27.75;20.05;;;19.00;99.90;;;;;;5081705;28;20043;-76
2023/06/04 04:17:45;;;;;;;29.85;19.15;;;19.10;99.90;;;;;;5081382;28;20047;-76
2023/06/04 04:20:49;;;;;;;30.75;18.90;;;19.10;99.90;;;;;;5081218;28;20063;-76
2023/06/04 04:23:54;;;;;;;19.40;16.45;;;19.30;99.90;;;;;;5081758;28;20392;-75
2023/06/04 04:26:58;;;;;;;20.77;15.45;;;19.60;99.90;;;;;;5081604;28;20035;-75
2023/06/04 04:30:07;;;;;;;20.70;14.93;;;19.70;99.90;;;;;;5082018;28;20047;-75
2023/06/04 04:33:15;;;;;;;19.55;14.32;;;19.80;99.90;;;;;;5081149;28;20043;-76
2023/06/04 04:36:22;;;;;;;16.38;13.40;;;19.80;99.90;;;;;;5081034;28;20511;-75
2023/06/04 04:39:27;;;;;;;18.30;13.18;;;19.90;99.90;;;;;;5080597;28;20066;-75
2023/06/04 04:42:34;;;;;;;18.50;11.63;;;19.90;99.90;;;;;;5081053;28;20031;-75
2023/06/04 04:45:40;;;;;;;15.68;11.93;;;20.00;99.90;;;;;;5080834;28;20063;-75
2023/06/04 04:48:46;;;;;;;14.52;10.73;;;20.10;99.90;;;;;;5080884;28;20047;-75
2023/06/04 04:51:50;;;;;;;15.90;11.43;;;20.40;99.90;;;;;;5081089;28;20047;-76
2023/06/04 04:54:57;;;;;;;15.63;11.63;;;20.60;99.90;;;;;;5080876;28;20039;-77
2023/06/04 04:58:04;;;;;;;16.90;10.98;;;20.80;99.90;;;;;;5080971;28;20058;-76
2023/06/04 05:01:09;;;;;;;18.13;12.50;;;21.00;99.90;;;;;;5080537;28;20039;-76
2023/06/04 05:04:17;;;;;;;17.05;12.38;;;21.00;99.80;;;;;;5081185;28;20047;-77
2023/06/04 05:07:23;;;;;;;16.42;12.18;;;20.90;99.90;;;;;;5052333;28;20429;-77
2023/06/04 05:10:27;;;;;;;16.42;12.30;;;20.80;99.90;;;;;;5052054;28;20056;-75
2023/06/04 05:13:32;;;;;;;17.13;13.30;;;20.90;99.90;;;;;;5052217;28;20389;-77
2023/06/04 05:16:40;;;;;;;17.90;13.32;;;20.80;99.90;;;;;;5053083;28;20044;-77
2023/06/04 05:19:47;;;;;;;20.27;13.35;;;20.80;99.90;;;;;;5063905;28;20048;-77
2023/06/04 05:22:51;;;;;;;15.32;13.45;;;21.00;99.90;;;;;;5051916;28;20051;-76
2023/06/04 05:25:57;;;;;;;17.63;13.02;;;21.20;99.90;;;;;;5052368;28;20048;-77
2023/06/04 05:29:01;;;;;;;15.65;12.85;;;21.40;99.90;;;;;;5053219;28;20049;-76
2023/06/04 05:32:11;;;;;;;19.10;12.43;;;21.80;99.90;;;;;;5063198;28;20060;-76
2023/06/04 05:35:15;;;;;;;19.92;13.73;;;22.00;99.70;;;;;;5052967;28;20036;-76
2023/06/04 05:38:27;;;;;;;25.50;15.00;;;22.30;99.30;;;;;;5062979;28;20044;-76
2023/06/04 05:41:35;;;;;;;23.70;16.40;;;22.50;99.00;;;;;;5051408;28;20048;-76
2023/06/04 05:44:40;;;;;;;23.15;16.20;;;22.50;98.90;;;;;;5051975;28;20044;-76
2023/06/04 05:47:46;;;;;;;19.88;15.63;;;22.50;99.10;;;;;;5051830;28;20052;-75
2023/06/04 05:50:50;;;;;;;25.65;16.80;;;22.60;99.30;;;;;;5052439;28;20052;-75
2023/06/04 05:53:54;;;;;;;22.38;17.15;;;22.80;99.10;;;;;;5063176;28;20048;-76
2023/06/04 05:56:58;;;;;;;22.60;15.70;;;22.90;98.80;;;;;;5051023;28;20048;-76
2023/06/04 06:00:08;;;;;;;22.58;17.67;;;23.20;99.20;;;;;;5051090;28;20445;-76
2023/06/04 06:03:19;;;;;;;25.35;17.55;;;23.20;98.50;;;;;;5052405;28;20056;-75
2023/06/04 06:06:28;;;;;;;23.02;17.25;;;23.20;98.70;;;;;;5054558;28;20052;-76
2023/06/04 06:09:33;;;;;;;20.13;15.82;;;23.50;98.60;;;;;;5080125;28;20098;-76
2023/06/04 06:12:37;;;;;;;23.90;18.23;;;23.60;98.40;;;;;;5091034;28;20059;-75
2023/06/04 06:15:42;;;;;;;23.20;15.38;;;23.70;97.90;;;;;;5079161;28;20035;-71
2023/06/04 06:18:46;;;;;;;20.45;15.73;;;23.70;98.00;;;;;;5068020;28;20387;-76
2023/06/04 06:21:51;;;;;;;20.08;15.43;;;24.00;97.70;;;;;;5078983;28;20051;-75
2023/06/04 06:24:56;;;;;;;21.65;16.02;;;24.20;97.70;;;;;;5079312;28;20052;-76
2023/06/04 06:28:00;;;;;;;20.80;15.73;;;24.50;97.20;;;;;;5079323;28;20530;-74
2023/06/04 06:31:05;;;;;;;19.80;13.88;;;24.80;96.70;;;;;;5078816;28;20058;-75
2023/06/04 06:34:10;;;;;;;16.50;13.07;;;25.00;96.40;;;;;;5079598;28;20043;-75
2023/06/04 06:37:13;;;;;;;17.65;13.00;;;25.10;95.90;;;;;;5091444;28;20051;-75
2023/06/04 06:40:19;;;;;;;16.20;12.70;;;25.30;96.30;;;;;;5091688;28;20122;-76
2023/06/04 06:43:23;;;;;;;19.15;12.70;;;25.50;95.50;;;;;;5078631;28;20047;-74
2023/06/04 06:46:27;;;;;;;19.67;13.63;;;25.70;95.40;;;;;;5091141;28;20040;-75
2023/06/04 06:49:31;;;;;;;18.38;13.65;;;25.90;94.80;;;;;;5091336;28;20051;-74
2023/06/04 06:52:35;;;;;;;19.85;13.77;;;26.30;94.50;;;;;;5091620;28;20463;-75
2023/06/04 06:55:42;;;;;;;23.17;15.02;;;26.60;94.00;;;;;;5091807;28;20198;-75
2023/06/04 06:58:46;;;;;;;25.10;13.82;;;26.70;93.60;;;;;;5091230;28;20051;-75
2023/06/04 07:01:51;;;;;;;20.02;15.15;;;26.60;93.90;;;;;;5092041;28;20069;-75
2023/06/04 07:04:55;;;;;;;18.05;14.82;;;26.60;93.50;;;;;;5091385;28;20067;-75
2023/06/04 07:08:00;;;;;;;16.85;12.75;;;26.70;93.30;;;;;;5078444;28;20048;-75
2023/06/04 07:11:05;;;;;;;21.75;13.32;;;26.80;93.60;;;;;;5078771;28;20638;-74
2023/06/04 07:14:09;;;;;;;17.50;13.40;;;27.00;93.10;;;;;;5092014;28;20035;-77
2023/06/04 07:17:14;;;;;;;21.80;15.68;;;27.10;92.80;;;;;;5091939;28;20047;-77
2023/06/04 07:20:18;;;;;;;25.60;13.80;;;26.70;92.90;;;;;;5078680;28;20522;-77
2023/06/04 07:23:22;;;;;;;20.10;13.65;;;26.50;93.80;;;;;;5092233;28;20043;-77
2023/06/04 07:26:30;;;;;;;21.58;13.82;;;26.40;93.30;;;;;;5091353;28;20043;-77
2023/06/04 07:29:34;;;;;;;20.17;12.63;;;26.60;93.30;;;;;;5091821;28;20039;-76
2023/06/04 07:32:38;;;;;;;20.05;13.13;;;26.80;92.80;;;;;;5091663;28;20066;-77
2023/06/04 07:35:43;;;;;;;21.15;13.63;;;27.20;92.50;;;;;;5092887;28;20387;-77
2023/06/04 07:38:47;;;;;;;22.30;13.02;;;27.20;92.20;;;;;;5067232;28;20051;-76
2023/06/04 07:41:51;;;;;;;21.00;11.60;;;27.30;92.00;;;;;;5091721;28;20043;-77
2023/06/04 07:44:55;;;;;;;16.77;13.10;;;27.50;92.30;;;;;;5091033;28;20400;-76
2023/06/04 07:48:00;;;;;;;16.10;10.82;;;27.70;91.80;;;;;;5090901;28;20198;-75
2023/06/04 07:51:07;;;;;;;16.42;10.60;;;27.80;91.90;;;;;;5066779;28;20502;-76
2023/06/04 07:54:13;;;;;;;15.30;10.80;;;28.10;91.70;;;;;;5091058;28;20047;-75
2023/06/04 07:57:20;;;;;;;18.60;11.98;;;28.10;90.80;;;;;;5094392;28;20527;-75
2023/06/04 08:00:25;;;;;;;15.32;11.10;;;28.40;91.10;;;;;;5081690;28;20067;-74
2023/06/04 08:03:30;;;;;;;16.75;10.07;;;28.50;90.90;;;;;;5094624;28;20035;-76
2023/06/04 08:06:35;;;;;;;13.32;9.88;;;28.80;90.60;;;;;;5094099;28;20047;-75
2023/06/04 08:09:39;;;;;;;15.93;10.32;;;28.80;90.10;;;;;;5094100;28;20047;-75
2023/06/04 08:12:43;;;;;;;14.65;9.27;;;28.90;89.70;;;;;;5094100;28;20059;-75
2023/06/04 08:15:49;;;;;;;14.32;11.25;;;28.90;89.70;;;;;;5093847;28;20055;-75
2023/06/04 08:19:13;;;;;;;14.20;10.13;;;29.20;89.60;;;;;;5084887;28;20051;-74
2023/06/04 08:22:21;;;;;;;13.45;8.98;;;29.30;87.90;;;;;;5094167;28;20039;-75
2023/06/04 08:25:36;;;;;;;16.60;9.80;;;29.20;87.30;;;;;;5093464;28;20107;-75
2023/06/04 08:29:05;;;;;;;14.10;10.05;;;29.30;87.90;;;;;;5093837;28;20214;-74
2023/06/04 08:32:13;;;;;;;17.77;11.13;;;29.30;87.70;;;;;;5093241;28;20051;-75
2023/06/04 08:35:30;;;;;;;12.27;8.82;;;29.10;87.40;;;;;;5093715;28;20047;-75
2023/06/04 08:38:34;;;;;;;14.80;11.13;;;29.30;87.40;;;;;;5093539;28;20063;-76
2023/06/04 08:41:44;;;;;;;11.70;9.68;;;29.50;85.80;;;;;;5093330;28;20047;-76
2023/06/04 08:44:55;;;;;;;10.00;8.82;;;29.40;86.10;;;;;;5093578;28;20047;-76
2023/06/04 08:48:00;;;;;;;;;;;29.50;85.70;;;;;;5094307;28;20039;-75
2023/06/04 08:51:10;;;;;;;17.00;8.18;;;29.50;84.90;;;;;;5081033;28;19912;-75
2023/06/04 08:54:14;;;;;;;8.77;7.25;;;29.30;84.00;;;;;;5081086;28;20051;-75
2023/06/04 08:57:21;;;;;;;11.48;7.68;;;29.30;84.50;;;;;;5080799;28;20043;-75
2023/06/04 09:00:25;;;;;;;10.60;9.30;;;29.20;82.70;;;;;;5081124;28;20043;-77
2023/06/04 09:03:32;;;;;;;14.82;8.18;;;29.30;83.20;;;;;;5093122;28;20048;-76
2023/06/04 09:06:39;;;;;;;12.95;8.30;;;29.10;84.20;;;;;;5092181;28;20043;-76
2023/06/04 09:09:48;;;;;;;12.82;8.43;;;29.20;83.80;;;;;;5093477;28;20526;-77
2023/06/04 09:12:52;;;;;;;11.02;7.82;;;29.40;84.60;;;;;;5092782;28;20054;-75
2023/06/04 09:16:03;;;;;;;9.52;7.60;;;29.50;84.70;;;;;;5080488;28;20098;-75
2023/06/04 09:19:08;;;;;;;11.30;9.10;;;29.70;84.80;;;;;;5080586;28;20051;-75
2023/06/04 09:22:12;;;;;;;11.38;8.48;;;29.70;84.00;;;;;;5093140;28;20067;-74
2023/06/04 09:25:26;;;;;;;12.82;9.30;;;29.60;84.00;;;;;;5092729;28;20047;-75
2023/06/04 09:28:31;;;;;;;9.55;7.75;;;29.70;83.60;;;;;;5092936;28;20043;-76
2023/06/04 09:31:38;;;;;;;10.75;7.43;;;29.70;83.70;;;;;;5079616;28;20048;-76
2023/06/04 09:34:45;;;;;;;10.30;7.97;;;29.90;84.20;;;;;;5092955;28;20301;-76
2023/06/04 09:37:54;;;;;;;13.80;9.40;;;30.00;84.20;;;;;;5092929;28;20039;-77
2023/06/04 09:40:58;;;;;;;16.80;8.93;;;29.80;82.40;;;;;;5092614;28;20047;-76
2023/06/04 09:44:05;;;;;;;14.43;8.70;;;29.20;84.00;;;;;;5092441;28;20047;-77
2023/06/04 09:47:09;;;;;;;13.18;8.65;;;29.20;84.20;;;;;;5092822;28;20063;-73
2023/06/04 09:50:13;;;;;;;11.57;7.95;;;29.40;84.90;;;;;;5092398;28;20043;-75
2023/06/04 09:53:23;;;;;;;13.50;9.32;;;29.60;83.80;;;;;;5091866;28;20051;-76
2023/06/04 09:56:30;;;;;;;9.95;7.97;;;29.60;83.20;;;;;;5079672;28;20498;-76
2023/06/04 09:59:40;;;;;;;15.93;10.98;;;29.50;83.80;;;;;;5092672;28;20097;-76
2023/06/04 10:02:48;;;;;;;14.02;10.60;;;29.60;84.60;;;;;;5081102;28;20094;-76
2023/06/04 10:05:57;;;;;;;11.30;9.82;;;29.70;84.80;;;;;;5092146;28;20217;-76
2023/06/04 10:09:08;;;;;;;9.88;8.75;;;29.70;84.40;;;;;;5080622;28;20055;-75
2023/06/04 10:12:17;;;;;;;12.45;8.82;;;29.70;84.30;;;;;;5092454;28;20055;-75
2023/06/04 10:15:21;;;;;;;14.43;9.60;;;29.80;84.20;;;;;;5093878;28;20035;-75
2023/06/04 10:18:28;;;;;;;15.55;9.82;;;29.90;85.00;;;;;;5091953;28;20110;-76
2023/06/04 10:21:35;;;;;;;10.18;8.70;;;29.80;85.60;;;;;;5091908;28;20427;-75
2023/06/04 10:24:40;;;;;;;10.90;8.73;;;29.90;85.10;;;;;;5091691;28;20502;-76
2023/06/04 10:27:46;;;;;;;13.15;9.23;;;29.90;83.60;;;;;;5078999;28;20050;-76
2023/06/04 10:30:50;;;;;;;14.02;9.90;;;30.00;83.70;;;;;;5091372;28;20043;-76
2023/06/04 10:33:56;;;;;;;13.73;8.70;;;30.00;84.30;;;;;;5080219;28;20051;-76
2023/06/04 10:37:02;;;;;;;12.25;7.38;;;30.00;83.80;;;;;;5092876;28;20039;-75
2023/06/04 10:40:07;;;;;;;15.73;8.65;;;30.00;83.60;;;;;;5067708;28;20396;-75
2023/06/04 10:43:12;;;;;;;18.60;10.13;;;30.00;82.50;;;;;;5091280;28;20392;-75
2023/06/04 10:46:18;;;;;;;17.60;8.85;;;29.90;84.30;;;;;;5079814;28;20043;-76
2023/06/04 10:49:28;;;;;;;15.05;9.68;;;30.00;85.10;;;;;;5079999;28;20483;-76
2023/06/04 10:52:36;;;;;;;17.08;9.55;;;29.90;85.20;;;;;;5092034;28;20515;-76
2023/06/04 10:55:49;;;;;;;12.93;9.18;;;29.90;84.40;;;;;;5091728;28;20058;-76
2023/06/04 10:58:55;;;;;;;15.95;9.85;;;29.80;85.00;;;;;;5094433;28;20214;-76
2023/06/04 11:02:06;;;;;;;16.15;10.32;;;29.80;85.80;;;;;;5092577;28;20043;-75
2023/06/04 11:05:11;;;;;;;16.20;10.75;;;29.70;85.30;;;;;;5080800;28;20059;-76
2023/06/04 11:08:29;;;;;;;15.18;10.73;;;29.60;85.50;;;;;;5092699;28;20047;-75
2023/06/04 11:11:33;;;;;;;15.75;9.85;;;29.60;85.50;;;;;;5091845;28;20070;-76
2023/06/04 11:14:37;;;;;;;16.25;11.25;;;29.50;86.10;;;;;;5092119;28;20047;-74
2023/06/04 11:17:55;;;;;;;19.38;11.50;;;29.50;86.10;;;;;;5092632;28;20043;-75
2023/06/04 11:21:01;;;;;;;23.50;12.88;;;29.50;86.50;;;;;;5091664;28;20066;-75
2023/06/04 11:24:06;;;;;;;22.88;11.05;;;29.50;86.80;;;;;;5091732;28;20035;-76
2023/06/04 11:27:10;;;;;;;23.38;11.63;;;29.50;86.60;;;;;;5080079;28;20494;-75
2023/06/04 11:30:14;;;;;;;18.85;10.55;;;29.50;86.40;;;;;;5080961;28;20066;-75
2023/06/04 11:33:18;;;;;;;12.57;9.48;;;29.50;86.60;;;;;;5083305;28;20071;-75
2023/06/04 11:36:27;;;;;;;16.27;10.32;;;29.60;86.60;;;;;;5094573;28;20039;-76
2023/06/04 11:39:38;;;;;;;29.30;12.30;;;29.60;85.60;;;;;;5095154;28;20043;-75
2023/06/04 11:43:02;;;;;;;11.20;9.30;;;29.60;85.00;;;;;;5061756;28;20400;-75
2023/06/04 11:46:06;;;;;;;10.57;8.80;;;29.60;83.80;;;;;;5095479;28;20039;-75
2023/06/04 11:49:18;;;;;;;8.43;7.57;;;29.50;84.00;;;;;;5094549;28;20051;-76
2023/06/04 11:52:22;;;;;;;10.90;8.20;;;29.50;83.50;;;;;;5096533;28;20515;-75
2023/06/04 11:55:26;;;;;;;9.85;7.70;;;29.40;83.20;;;;;;5095879;28;20035;-76
2023/06/04 11:58:32;;;;;;;13.70;8.75;;;29.50;84.00;;;;;;5085331;28;20047;-76
2023/06/04 12:01:37;;;;;;;12.15;8.82;;;29.50;83.60;;;;;;5095256;28;20050;-75
2023/06/04 12:04:42;;;;;;;15.40;8.65;;;29.50;84.40;;;;;;5096595;28;20039;-75
2023/06/04 12:07:55;;;;;;;10.93;8.80;;;29.50;85.10;;;;;;5083863;28;20074;-76
2023/06/04 12:11:02;;;;;;;11.85;8.00;;;29.50;84.70;;;;;;5095244;28;20055;-76
2023/06/04 12:14:07;;;;;;;15.00;9.13;;;29.40;85.30;;;;;;5083292;28;20039;-75
2023/06/04 12:17:11;;;;;;;10.18;8.25;;;29.30;83.90;;;;;;5095900;28;20039;-74
2023/06/04 12:20:15;;;;;;;10.82;8.23;;;29.20;84.40;;;;;;5083097;28;20047;-76
2023/06/04 12:23:21;;;;;;;12.55;8.48;;;29.10;85.70;;;;;;5096846;28;20602;-76
2023/06/04 12:26:33;;;;;;;9.75;8.52;;;29.10;85.40;;;;;;5096211;28;20518;-76
2023/06/04 12:29:38;;;;;;;9.95;8.35;;;29.00;84.30;;;;;;5096086;28;20047;-76
2023/06/04 12:32:42;;;;;;;14.77;9.43;;;29.00;85.20;;;;;;5081377;28;20059;-76
2023/06/04 12:35:46;;;;;;;10.85;9.57;;;29.00;84.30;;;;;;5095761;28;20407;-76
2023/06/04 12:38:50;;;;;;;11.00;8.77;;;28.90;85.20;;;;;;5082946;28;20047;-76
2023/06/04 12:41:54;;;;;;;11.85;7.55;;;28.90;84.90;;;;;;5095078;28;20047;-76
2023/06/04 12:44:59;;;;;;;9.38;7.50;;;28.90;85.40;;;;;;5095511;28;20471;-75
2023/06/04 12:48:04;;;;;;;13.32;10.02;;;28.90;84.90;;;;;;5095907;28;20043;-78
2023/06/04 12:51:12;;;;;;;10.48;7.72;;;28.90;85.60;;;;;;5082753;28;20043;-78
2023/06/04 12:54:16;;;;;;;16.15;7.78;;;29.00;85.80;;;;;;5094273;28;20055;-75
2023/06/04 12:57:20;;;;;;;10.15;8.25;;;29.00;85.70;;;;;;5094041;28;20039;-77
2023/06/04 13:00:24;;;;;;;8.98;8.05;;;29.00;85.60;;;;;;5093742;28;20441;-75
2023/06/04 13:03:30;;;;;;;12.63;8.52;;;29.00;85.40;;;;;;5096259;28;20392;-75
2023/06/04 13:06:35;;;;;;;12.65;8.75;;;29.00;84.80;;;;;;5080039;28;20055;-76
2023/06/04 13:09:40;;;;;;;10.10;7.22;;;29.00;84.70;;;;;;5096398;28;20036;-77
2023/06/04 13:12:44;;;;;;;11.65;9.18;;;28.90;83.70;;;;;;5080448;28;20059;-76
2023/06/04 13:15:48;;;;;;;11.70;7.88;;;28.80;84.40;;;;;;5092902;28;20035;-77
2023/06/04 13:18:51;;;;;;;9.48;6.53;;;28.80;84.50;;;;;;5093088;28;20047;-76
2023/06/04 13:21:56;;;;;;;13.55;7.15;;;28.80;84.70;;;;;;5092986;28;20047;-76
2023/06/04 13:25:01;;;;;;;7.70;6.90;;;28.80;84.70;;;;;;5092867;28;20110;-77
2023/06/04 13:28:06;;;;;;;10.65;7.00;;;28.70;85.00;;;;;;5092737;28;20047;-78
2023/06/04 13:31:10;;;;;;;10.68;7.68;;;28.70;85.90;;;;;;5092519;28;20054;-77
2023/06/04 13:34:14;;;;;;;9.85;7.60;;;28.60;85.80;;;;;;5079907;28;20047;-75
2023/06/04 13:37:18;;;;;;;12.35;7.72;;;28.50;86.30;;;;;;5092653;28;20043;-77
2023/06/04 13:40:23;;;;;;;8.25;6.45;;;28.40;85.70;;;;;;5092364;28;20051;-75
2023/06/04 13:43:27;;;;;;;14.90;8.48;;;28.40;84.90;;;;;;5079759;28;20043;-76
2023/06/04 13:46:31;;;;;;;8.68;6.95;;;28.30;85.60;;;;;;5092235;28;20282;-77
2023/06/04 13:49:35;;;;;;;11.00;6.80;;;28.40;86.10;;;;;;5092500;28;20419;-76
2023/06/04 13:52:39;;;;;;;9.15;7.15;;;28.40;84.70;;;;;;5092016;28;20055;-76
2023/06/04 13:55:43;;;;;;;8.23;6.35;;;28.30;85.60;;;;;;5092410;28;20047;-76
2023/06/04 13:58:47;;;;;;;8.23;7.20;;;28.20;86.40;;;;;;5068609;28;20042;-76
2023/06/04 14:01:51;;;;;;;8.35;6.97;;;28.10;86.30;;;;;;5092507;28;20039;-74
2023/06/04 14:04:55;;;;;;;13.32;7.25;;;28.00;86.20;;;;;;5092128;28;20530;-75
2023/06/04 14:07:59;;;;;;;10.75;6.50;;;27.90;86.60;;;;;;5092226;28;20059;-76
2023/06/04 14:11:03;;;;;;;8.80;7.25;;;28.00;86.80;;;;;;5092088;28;20051;-76
2023/06/04 14:14:08;;;;;;;10.02;6.55;;;28.00;86.80;;;;;;5091956;28;20407;-75
2023/06/04 14:17:12;;;;;;;8.30;6.57;;;28.00;86.60;;;;;;5092521;28;20043;-76
2023/06/04 14:20:16;;;;;;;7.75;6.13;;;28.00;86.80;;;;;;5091767;28;20043;-75
2023/06/04 14:23:20;;;;;;;8.85;6.50;;;28.10;86.60;;;;;;5091951;28;20039;-75
2023/06/04 14:26:25;;;;;;;12.32;6.55;;;28.00;86.00;;;;;;5091827;28;20047;-75
2023/06/04 14:29:29;;;;;;;11.07;6.78;;;28.00;86.80;;;;;;5091887;28;20396;-76
2023/06/04 14:32:33;;;;;;;13.35;7.05;;;27.90;87.00;;;;;;5091502;28;20051;-77
2023/06/04 14:35:38;;;;;;;12.52;7.25;;;27.90;86.50;;;;;;5091340;28;20070;-75
2023/06/04 14:38:47;;;;;;;12.45;6.28;;;27.90;86.00;;;;;;5091511;28;20063;-76
2023/06/04 14:41:52;;;;;;;8.10;6.20;;;27.90;85.90;;;;;;5091365;28;20051;-75
2023/06/04 14:44:57;;;;;;;11.40;6.47;;;27.80;86.70;;;;;;5091495;28;20043;-75
2023/06/04 14:48:00;;;;;;;10.27;6.90;;;27.70;85.50;;;;;;5091607;28;20047;-77
2023/06/04 14:51:04;;;;;;;9.75;6.95;;;27.60;86.10;;;;;;5091250;28;20376;-73
2023/06/04 14:54:08;;;;;;;9.00;6.90;;;27.50;87.10;;;;;;5091962;28;20055;-77
2023/06/04 14:57:13;;;;;;;9.63;6.70;;;27.40;87.50;;;;;;5091339;28;20383;-74
2023/06/04 15:00:17;;;;;;;13.13;7.13;;;27.30;87.00;;;;;;5078678;28;20427;-77
2023/06/04 15:03:21;;;;;;;15.80;7.50;;;27.30;87.50;;;;;;5092189;28;20043;-75
2023/06/04 15:06:25;;;;;;;10.85;7.35;;;27.20;87.50;;;;;;5082396;28;20043;-73
2023/06/04 15:09:31;;;;;;;12.52;7.82;;;27.20;87.40;;;;;;5071472;28;20039;-73
2023/06/04 15:12:39;;;;;;;9.88;7.18;;;27.10;87.70;;;;;;5095701;28;20122;-76
2023/06/04 15:15:44;;;;;;;8.80;7.18;;;27.10;88.70;;;;;;5072382;28;20050;-76
2023/06/04 15:18:48;;;;;;;10.50;7.25;;;27.10;88.20;;;;;;5095591;28;20043;-77
2023/06/04 15:21:52;;;;;;;8.93;6.65;;;27.10;88.00;;;;;;5095282;28;20035;-75
2023/06/04 15:24:56;;;;;;;11.93;7.93;;;27.10;87.30;;;;;;5071089;28;20054;-77
2023/06/04 15:28:00;;;;;;;9.82;6.65;;;27.10;87.10;;;;;;5095113;28;20043;-75
2023/06/04 15:31:04;;;;;;;10.98;6.40;;;27.10;87.30;;;;;;5094843;28;20042;-76
2023/06/04 15:34:09;;;;;;;10.40;6.88;;;27.00;87.40;;;;;;5094588;28;20491;-78
2023/06/04 15:37:13;;;;;;;8.48;6.43;;;27.10;86.90;;;;;;5094689;28;20035;-75
2023/06/04 15:40:17;;;;;;;7.95;7.15;;;27.10;87.10;;;;;;5094828;28;20051;-76
2023/06/04 15:43:21;;;;;;;9.60;6.45;;;27.00;87.20;;;;;;5081824;28;20063;-77
2023/06/04 15:46:25;;;;;;;11.68;8.27;;;27.00;87.10;;;;;;5082361;28;20045;-76
2023/06/04 15:49:30;;;;;;;8.73;6.90;;;27.00;87.00;;;;;;5094713;28;20047;-75